Time;durP1;ratioP1;P1;durP2;ratioP2;P2;SDS_P1;SDS_P2;PMS_P1;PMS_P2;Temp;Humidity;BMP_temperature;BMP_pressure;BME280_temperature;BME280_humidity;BME280_pressure;Samples;Min_cycle;Max_cycle;Signal;HPM_P1;HPM_P2
2023/06/29 00:00:31;;;;;;;;;;;;;;;22.75;74.18;97082.44;595424;238;66589;-64
2023/06/29 00:02:58;;;;;;;;;;;;;;;22.73;74.22;97072.02;595483;238;68829;-64
2023/06/29 00:05:25;;;;;;;;;;;;;;;22.73;74.73;97055.95;595473;238;64913;-65
2023/06/29 00:07:53;;;;;;;;;;;;;;;22.74;73.50;97070.93;595508;238;68843;-64
2023/06/29 00:10:25;;;;;;;;;;;;;;;22.73;73.41;97077.38;595483;238;66362;-64
2023/06/29 00:12:53;;;;;;;;;;;;;;;22.73;74.05;97055.95;595222;238;46316;-64
2023/06/29 00:15:20;;;;;;;;;;;;;;;22.73;73.49;97098.02;595476;238;66668;-64
2023/06/29 00:17:47;;;;;;;;;;;;;;;22.72;72.35;97097.20;595444;238;66724;-64
2023/06/29 00:20:15;;;;;;;;;;;;;;;22.74;74.28;97089.69;595502;238;63881;-64
2023/06/29 00:22:47;;;;;;;;;;;;;;;22.74;74.45;97078.17;595428;234;69017;-64
2023/06/29 00:25:12;;;;;;;;;;;;;;;22.72;74.37;97072.29;595343;238;68307;-64
2023/06/29 00:27:39;;;;;;;;;;;;;;;22.72;74.05;97070.41;595472;238;62938;-64
2023/06/29 00:30:07;;;;;;;;;;;;;;;22.72;73.98;97078.44;595450;238;66650;-64
2023/06/29 00:32:35;;;;;;;;;;;;;;;22.73;74.00;97081.95;595511;238;68558;-64
2023/06/29 00:35:04;;;;;;;;;;;;;;;22.72;73.80;97086.48;595469;238;63612;-64
2023/06/29 00:37:32;;;;;;;;;;;;;;;22.72;73.89;97074.97;595469;238;68518;-64
2023/06/29 00:40:00;;;;;;;;;;;;;;;22.72;73.79;97080.33;595419;238;67362;-62
2023/06/29 00:42:30;;;;;;;;;;;;;;;22.72;74.13;97081.13;595460;238;62640;-62
2023/06/29 00:44:57;;;;;;;;;;;;;;;22.71;73.77;97063.45;595503;238;66830;-62
2023/06/29 00:47:25;;;;;;;;;;;;;;;22.72;73.34;97061.58;595441;238;66419;-62
2023/06/29 00:49:52;;;;;;;;;;;;;;;22.71;73.53;97063.45;595464;238;63549;-62
2023/06/29 00:52:20;;;;;;;;;;;;;;;22.71;73.74;97055.42;595443;238;68590;-62
2023/06/29 00:54:48;;;;;;;;;;;;;;;22.71;73.71;97063.45;595447;238;67694;-62
2023/06/29 00:57:17;;;;;;;;;;;;;;;22.72;73.98;97053.53;595474;238;65768;-62
2023/06/29 00:59:44;;;;;;;;;;;;;;;22.71;74.59;97047.38;595522;238;68823;-62
2023/06/29 01:02:14;;;;;;;;;;;;;;;22.71;75.05;97049.27;595453;238;68692;-62
2023/06/29 01:04:45;;;;;;;;;;;;;;;22.70;75.40;97053.84;595478;238;64993;-63
2023/06/29 01:07:19;;;;;;;;;;;;;;;22.70;74.91;97059.19;595395;238;73092;-63
2023/06/29 01:09:47;;;;;;;;;;;;;;;22.70;74.36;97055.69;595441;238;67538;-63
2023/06/29 01:12:16;;;;;;;;;;;;;;;22.69;74.00;97060.25;595497;238;65059;-64
2023/06/29 01:14:45;;;;;;;;;;;;;;;22.70;73.31;97063.72;595471;238;69263;-63
2023/06/29 01:17:14;;;;;;;;;;;;;;;22.70;74.11;97069.08;595437;238;68551;-63
2023/06/29 01:19:43;;;;;;;;;;;;;;;22.69;73.22;97065.61;595422;238;62799;-63
2023/06/29 01:22:12;;;;;;;;;;;;;;;22.71;74.42;97062.66;597412;235;68688;-63
2023/06/29 01:24:40;;;;;;;;;;;;;;;22.70;74.15;97059.19;603658;235;66383;-63
2023/06/29 01:27:08;;;;;;;;;;;;;;;22.69;73.58;97052.22;603687;235;62912;-63
2023/06/29 01:29:38;;;;;;;;;;;;;;;22.70;73.81;97047.66;603643;235;68853;-63
2023/06/29 01:32:07;;;;;;;;;;;;;;;22.69;73.92;97052.22;603571;235;67684;-63
2023/06/29 01:34:36;;;;;;;;;;;;;;;22.69;73.69;97038.03;603649;235;65063;-63
2023/06/29 01:37:11;;;;;;;;;;;;;;;22.69;73.48;97038.82;603655;235;66679;-63
2023/06/29 01:39:58;;;;;;;;;;;;;;;22.68;73.52;97036.44;603695;235;68638;-63
2023/06/29 01:42:26;;;;;;;;;;;;;;;22.69;74.24;97033.47;603649;235;62769;-63
2023/06/29 01:44:54;;;;;;;;;;;;;;;22.68;74.08;97031.88;603657;235;66690;-63
2023/06/29 01:47:23;;;;;;;;;;;;;;;22.68;74.67;97029.20;603663;235;68665;-63
2023/06/29 01:49:50;;;;;;;;;;;;;;;22.68;73.99;97023.84;603648;235;63065;-63
2023/06/29 01:52:19;;;;;;;;;;;;;;;22.67;73.83;97030.29;603647;235;68651;-63
2023/06/29 01:54:46;;;;;;;;;;;;;;;22.67;74.00;97035.65;603687;235;68553;-63
2023/06/29 01:57:14;;;;;;;;;;;;;;;22.67;73.97;97024.94;603527;235;65275;-63
2023/06/29 01:59:44;;;;;;;;;;;;;;;22.68;74.25;97037.23;596795;235;50454;-63
2023/06/29 02:02:13;;;;;;;;;;;;;;;22.67;73.65;97035.65;603670;235;68672;-63
2023/06/29 02:04:40;;;;;;;;;;;;;;;22.68;73.97;97044.48;603686;235;62810;-63
2023/06/29 02:07:10;;;;;;;;;;;;;;;22.67;73.68;97024.11;603742;235;47642;-63
2023/06/29 02:09:37;;;;;;;;;;;;;;;22.68;74.13;97025.73;603613;235;66437;-63
2023/06/29 02:12:05;;;;;;;;;;;;;;;22.67;74.03;97030.29;603695;235;65275;-63
2023/06/29 02:14:33;;;;;;;;;;;;;;;22.67;74.00;97030.29;603712;235;69602;-63
2023/06/29 02:17:01;;;;;;;;;;;;;;;22.68;74.22;97036.44;603644;235;66294;-63
2023/06/29 02:19:28;;;;;;;;;;;;;;;22.67;73.87;97041.01;603744;235;62828;-63
2023/06/29 02:21:56;;;;;;;;;;;;;;;22.67;74.09;97040.18;603585;235;69041;-63
2023/06/29 02:24:23;;;;;;;;;;;;;;;22.67;73.96;97046.36;603678;235;69454;-64
2023/06/29 02:26:52;;;;;;;;;;;;;;;22.67;74.07;97038.33;603649;235;65585;-64
2023/06/29 02:29:20;;;;;;;;;;;;;;;22.66;74.22;97044.75;603664;235;67264;-64
2023/06/29 02:31:48;;;;;;;;;;;;;;;22.67;74.36;97046.36;603671;235;68540;-64
2023/06/29 02:34:16;;;;;;;;;;;;;;;22.66;74.77;97043.95;603726;235;65040;-64
2023/06/29 02:36:43;;;;;;;;;;;;;;;22.66;74.83;97044.75;603683;235;68950;-64
2023/06/29 02:39:13;;;;;;;;;;;;;;;22.64;73.97;97041.54;603716;235;45364;-64
2023/06/29 02:41:40;;;;;;;;;;;;;;;22.65;74.22;97047.72;603685;235;65842;-63
2023/06/29 02:44:08;;;;;;;;;;;;;;;22.64;74.16;97044.22;603566;235;68481;-64
2023/06/29 02:46:36;;;;;;;;;;;;;;;22.64;74.43;97044.22;603712;235;66618;-64
2023/06/29 02:49:03;;;;;;;;;;;;;;;22.65;74.55;97050.40;603654;235;65003;-63
2023/06/29 02:51:31;;;;;;;;;;;;;;;22.64;74.67;97046.89;603713;235;66062;-63
2023/06/29 02:54:00;;;;;;;;;;;;;;;22.64;74.48;97046.89;603651;235;45578;-63
2023/06/29 02:56:29;;;;;;;;;;;;;;;22.64;74.01;97040.75;603677;235;64961;-63
2023/06/29 02:58:57;;;;;;;;;;;;;;;22.65;74.02;97045.05;603740;235;68357;-65
2023/06/29 03:01:26;;;;;;;;;;;;;;;22.64;73.05;97046.10;603654;235;67327;-64
2023/06/29 03:03:54;;;;;;;;;;;;;;;22.63;72.43;97047.98;603663;235;65091;-64
2023/06/29 03:06:21;;;;;;;;;;;;;;;22.63;72.31;97050.66;603699;235;68537;-64
2023/06/29 03:08:49;;;;;;;;;;;;;;;22.64;72.24;97056.81;603656;235;69226;-64
2023/06/29 03:11:17;;;;;;;;;;;;;;;22.63;72.23;97056.02;603675;235;65821;-64
2023/06/29 03:13:45;;;;;;;;;;;;;;;22.64;72.88;97065.65;603675;235;69128;-64
2023/06/29 03:16:13;;;;;;;;;;;;;;;22.64;72.94;97072.89;603627;235;68698;-64
2023/06/29 03:18:41;;;;;;;;;;;;;;;22.63;72.55;97064.06;603659;235;62741;-64
2023/06/29 03:21:09;;;;;;;;;;;;;;;22.64;73.00;97064.85;603665;235;66709;-63
2023/06/29 03:23:36;;;;;;;;;;;;;;;22.64;73.38;97068.33;603618;235;68683;-63
2023/06/29 03:26:04;;;;;;;;;;;;;;;22.63;73.89;97071.30;603719;235;65197;-63
2023/06/29 03:28:31;;;;;;;;;;;;;;;22.63;73.89;97065.95;603678;235;66764;-64
2023/06/29 03:30:58;;;;;;;;;;;;;;;22.62;73.68;97059.80;603620;235;66768;-64
2023/06/29 03:33:26;;;;;;;;;;;;;;;22.62;73.48;97065.16;603687;235;62952;-63
2023/06/29 03:35:53;;;;;;;;;;;;;;;22.61;73.68;97053.61;603628;235;66651;-63
2023/06/29 03:38:21;;;;;;;;;;;;;;;22.62;72.94;97057.12;603718;235;68728;-63
2023/06/29 03:40:48;;;;;;;;;;;;;;;22.61;72.77;97064.33;603650;235;64890;-63
2023/06/29 03:43:16;;;;;;;;;;;;;;;22.62;72.41;97065.16;603643;235;68825;-63
2023/06/29 03:45:43;;;;;;;;;;;;;;;22.61;72.68;97074.25;603637;235;66715;-63
2023/06/29 03:48:11;;;;;;;;;;;;;;;22.61;72.39;97072.36;603677;235;65055;-63
2023/06/29 03:50:38;;;;;;;;;;;;;;;22.63;72.69;97076.66;603712;235;68879;-63
2023/06/29 03:53:05;;;;;;;;;;;;;;;22.62;72.67;97075.86;603660;235;68636;-63
2023/06/29 03:55:33;;;;;;;;;;;;;;;22.62;72.42;97078.55;603679;235;65061;-63
2023/06/29 03:58:00;;;;;;;;;;;;;;;22.61;72.28;97080.40;603638;235;69760;-63
2023/06/29 04:00:28;;;;;;;;;;;;;;;22.62;72.81;97075.86;603604;235;68973;-63
2023/06/29 04:02:55;;;;;;;;;;;;;;;22.62;72.76;97081.22;603674;235;63102;-63
2023/06/29 04:05:23;;;;;;;;;;;;;;;22.61;73.15;97077.72;603625;235;68826;-63
2023/06/29 04:07:50;;;;;;;;;;;;;;;22.61;73.68;97076.92;603663;235;68723;-63
2023/06/29 04:10:18;;;;;;;;;;;;;;;22.62;73.60;97086.58;603635;235;65099;-63
2023/06/29 04:12:45;;;;;;;;;;;;;;;22.61;73.65;97079.61;603603;235;68813;-63
2023/06/29 04:15:13;;;;;;;;;;;;;;;22.62;74.24;97091.94;603712;235;68621;-63
2023/06/29 04:17:41;;;;;;;;;;;;;;;22.61;75.22;97079.61;603665;235;65031;-63
2023/06/29 04:20:09;;;;;;;;;;;;;;;22.61;75.38;97084.96;603639;235;66302;-63
2023/06/29 04:22:37;;;;;;;;;;;;;;;22.60;74.96;97088.73;603587;235;68653;-64
2023/06/29 04:25:05;;;;;;;;;;;;;;;22.60;75.30;97083.38;603594;235;65026;-64
2023/06/29 04:27:34;;;;;;;;;;;;;;;22.60;75.51;97088.73;603705;235;69061;-63
2023/06/29 04:30:03;;;;;;;;;;;;;;;22.59;75.10;97087.14;603648;235;67601;-63
2023/06/29 04:32:31;;;;;;;;;;;;;;;22.59;75.06;97081.78;603666;235;65079;-63
2023/06/29 04:34:59;;;;;;;;;;;;;;;22.59;75.33;97077.22;603654;235;68776;-64
2023/06/29 04:37:36;;;;;;;;;;;;;;;22.59;75.74;97084.47;603617;235;66741;-63
2023/06/29 04:39:56;;;;;;;;;;;;;;;22.60;76.21;97091.41;603210;235;64898;-63
2023/06/29 04:42:25;;;;;;;;;;;;;;;22.59;75.75;97087.14;603709;235;68822;-63
2023/06/29 04:44:55;;;;;;;;;;;;;;;22.58;75.85;97091.67;603671;235;68701;-63
2023/06/29 04:47:23;;;;;;;;;;;;;;;22.57;75.57;97087.41;603666;235;65747;-63
2023/06/29 04:49:51;;;;;;;;;;;;;;;22.57;75.54;97087.41;603618;235;68779;-63
2023/06/29 04:52:18;;;;;;;;;;;;;;;22.57;75.77;97100.00;603643;235;66712;-63
2023/06/29 04:54:46;;;;;;;;;;;;;;;22.58;75.60;97098.92;603697;235;62948;-63
2023/06/29 04:57:13;;;;;;;;;;;;;;;22.59;75.49;97108.57;603654;235;66497;-63
2023/06/29 04:59:41;;;;;;;;;;;;;;;22.57;75.52;97105.36;603667;235;66330;-63
2023/06/29 05:02:08;;;;;;;;;;;;;;;22.57;76.03;97100.80;603638;235;65023;-63
2023/06/29 05:04:36;;;;;;;;;;;;;;;22.56;75.97;97104.57;603618;235;66570;-63
2023/06/29 05:07:04;;;;;;;;;;;;;;;22.57;76.25;97102.69;603727;235;68404;-63
2023/06/29 05:09:31;;;;;;;;;;;;;;;22.56;75.66;97101.06;603654;235;65623;-63
2023/06/29 05:11:59;;;;;;;;;;;;;;;22.55;75.16;97102.95;603644;235;69003;-63
2023/06/29 05:14:26;;;;;;;;;;;;;;;22.56;75.72;97106.42;598727;235;69021;-63
2023/06/29 05:16:54;;;;;;;;;;;;;;;22.56;76.34;97117.96;595490;238;62923;-63
2023/06/29 05:19:21;;;;;;;;;;;;;;;22.56;75.57;97109.10;589920;238;68406;-63
2023/06/29 05:21:49;;;;;;;;;;;;;;;22.56;75.80;97109.92;595879;237;66647;-63
2023/06/29 05:24:16;;;;;;;;;;;;;;;22.56;74.34;97117.14;595904;237;65329;-64
2023/06/29 05:26:44;;;;;;;;;;;;;;;22.55;73.84;97113.66;595963;238;68862;-63
2023/06/29 05:29:11;;;;;;;;;;;;;;;22.55;73.59;97123.58;596113;238;68555;-63
2023/06/29 05:31:39;;;;;;;;;;;;;;;22.56;73.18;97117.14;596102;238;64865;-63
2023/06/29 05:34:06;;;;;;;;;;;;;;;22.56;73.29;97119.81;596160;238;68470;-63
2023/06/29 05:36:34;;;;;;;;;;;;;;;22.55;73.94;97121.70;596118;238;68757;-63
2023/06/29 05:39:02;;;;;;;;;;;;;;;22.55;74.06;97126.26;596114;238;65069;-63
2023/06/29 05:41:29;;;;;;;;;;;;;;;22.54;73.93;97120.11;596064;237;69125;-63
2023/06/29 05:43:57;;;;;;;;;;;;;;;22.56;74.21;97122.49;596121;238;66495;-63
2023/06/29 05:46:24;;;;;;;;;;;;;;;22.55;74.57;97121.70;596145;238;63103;-63
2023/06/29 05:48:52;;;;;;;;;;;;;;;22.55;74.79;97115.55;595975;238;68877;-63
2023/06/29 05:51:23;;;;;;;;;;;;;;;22.55;75.68;97124.38;595833;237;46478;-63
2023/06/29 05:53:50;;;;;;;;;;;;;;;22.54;75.15;97122.79;595992;238;65032;-63
2023/06/29 05:56:20;;;;;;;;;;;;;;;22.55;76.54;97118.22;596198;238;49814;-62
2023/06/29 05:58:47;;;;;;;;;;;;;;;22.53;74.37;97121.17;596136;238;68618;-62
2023/06/29 06:01:15;;;;;;;;;;;;;;;22.56;73.42;97117.14;596045;238;65041;-62
2023/06/29 06:03:42;;;;;;;;;;;;;;;22.56;69.47;97111.78;596018;238;68815;-62
2023/06/29 06:06:10;;;;;;;;;;;;;;;22.54;71.80;97108.60;596022;237;66646;-62
2023/06/29 06:08:37;;;;;;;;;;;;;;;22.53;72.09;97115.02;596030;238;63856;-62
2023/06/29 06:11:05;;;;;;;;;;;;;;;22.52;72.00;97108.08;595298;238;66731;-62
2023/06/29 06:13:33;;;;;;;;;;;;;;;22.51;72.29;97111.84;595390;236;68696;-62
2023/06/29 06:16:00;;;;;;;;;;;;;;;22.51;72.91;97114.52;599167;236;64888;-62
2023/06/29 06:18:28;;;;;;;;;;;;;;;22.52;73.26;97118.78;599113;236;68826;-62
2023/06/29 06:20:55;;;;;;;;;;;;;;;22.53;74.22;97106.98;599570;236;66490;-62
2023/06/29 06:23:23;;;;;;;;;;;;;;;22.53;75.35;97110.45;594098;234;63087;-61
2023/06/29 06:25:50;;;;;;;;;;;;;;;22.54;75.51;97116.64;592627;239;68832;-61
2023/06/29 06:28:18;;;;;;;;;;;;;;;22.53;75.78;97104.30;592853;239;67005;-60
2023/06/29 06:30:47;;;;;;;;;;;;;;;22.53;75.60;97109.66;592837;239;63061;-61
2023/06/29 06:33:15;;;;;;;;;;;;;;;22.53;75.76;97098.95;592799;239;68795;-62
2023/06/29 06:35:44;;;;;;;;;;;;;;;22.53;75.11;97109.66;592929;237;66544;-61
2023/06/29 06:38:11;;;;;;;;;;;;;;;22.53;75.67;97110.45;592837;238;65070;-61
2023/06/29 06:40:38;;;;;;;;;;;;;;;22.52;75.02;97100.83;592821;239;68824;-61
2023/06/29 06:43:06;;;;;;;;;;;;;;;22.52;74.98;97098.16;592840;238;68457;-61
2023/06/29 06:45:33;;;;;;;;;;;;;;;22.52;74.91;97094.68;592961;239;65087;-61
2023/06/29 06:48:01;;;;;;;;;;;;;;;22.52;74.45;97092.00;592773;238;68412;-64
2023/06/29 06:50:28;;;;;;;;;;;;;;;22.52;74.45;97094.68;592907;239;68525;-62
2023/06/29 06:52:58;;;;;;;;;;;;;;;22.52;72.42;97094.68;592978;238;65056;-61
2023/06/29 06:55:26;;;;;;;;;;;;;;;22.52;74.49;97086.65;592853;239;68650;-61
2023/06/29 06:57:55;;;;;;;;;;;;;;;22.52;73.75;97087.44;593079;238;68569;-61
2023/06/29 07:00:22;;;;;;;;;;;;;;;22.50;72.63;97086.12;592905;239;65006;-61
2023/06/29 07:02:50;;;;;;;;;;;;;;;22.50;72.74;97088.80;592875;238;68345;-61
2023/06/29 07:05:17;;;;;;;;;;;;;;;22.49;72.36;97082.64;592892;239;68331;-61
2023/06/29 07:07:46;;;;;;;;;;;;;;;22.49;71.94;97085.33;592839;239;62930;-62
2023/06/29 07:10:13;;;;;;;;;;;;;;;22.48;69.84;97086.41;592722;239;68825;-62
2023/06/29 07:12:41;;;;;;;;;;;;;;;22.48;69.78;97082.91;592634;239;67135;-64
2023/06/29 07:15:08;;;;;;;;;;;;;;;22.48;69.60;97091.77;592845;239;65090;-62
2023/06/29 07:17:38;;;;;;;;;;;;;;;22.46;68.28;97093.12;592847;239;68847;-63
2023/06/29 07:20:06;;;;;;;;;;;;;;;22.50;69.50;97088.80;592839;236;70145;-62
2023/06/29 07:22:36;;;;;;;;;;;;;;;22.51;70.44;97095.77;593289;238;65054;-64
2023/06/29 07:25:06;;;;;;;;;;;;;;;22.53;73.46;97090.91;594333;237;68795;-64
2023/06/29 07:27:33;;;;;;;;;;;;;;;22.53;73.78;97098.95;597577;236;68726;-64
2023/06/29 07:30:00;;;;;;;;;;;;;;;22.53;74.17;97097.06;599718;236;65184;-64
2023/06/29 07:32:28;;;;;;;;;;;;;;;22.52;74.10;97097.36;590728;238;68724;-64
2023/06/29 07:34:56;;;;;;;;;;;;;;;22.52;73.99;97092.00;594935;236;68466;-63
2023/06/29 07:37:24;;;;;;;;;;;;;;;22.52;73.68;97086.65;599416;236;65296;-63
2023/06/29 07:39:51;;;;;;;;;;;;;;;22.52;73.75;97089.33;599773;236;66646;-64
2023/06/29 07:42:19;;;;;;;;;;;;;;;22.52;72.25;97094.68;599766;236;66716;-64
2023/06/29 07:44:46;;;;;;;;;;;;;;;22.53;71.72;97082.87;599649;236;65116;-64
2023/06/29 07:47:13;;;;;;;;;;;;;;;22.54;72.48;97081.82;597985;236;68780;-63
2023/06/29 07:49:41;;;;;;;;;;;;;;;22.55;71.61;97086.09;599163;236;66715;-62
2023/06/29 07:52:08;;;;;;;;;;;;;;;22.55;72.03;97080.73;599612;236;62945;-63
2023/06/29 07:54:36;;;;;;;;;;;;;;;22.55;71.57;97086.09;599768;236;66611;-63
2023/06/29 07:57:03;;;;;;;;;;;;;;;22.55;71.45;97084.20;599710;236;68661;-63
2023/06/29 07:59:31;;;;;;;;;;;;;;;22.55;71.27;97083.41;597404;236;65123;-64
2023/06/29 08:02:00;;;;;;;;;;;;;;;22.56;71.55;97077.78;598719;236;50047;-63
2023/06/29 08:04:27;;;;;;;;;;;;;;;22.57;71.52;97075.90;599435;236;68613;-64
2023/06/29 08:06:55;;;;;;;;;;;;;;;22.57;71.13;97074.02;599716;236;65033;-63
2023/06/29 08:09:22;;;;;;;;;;;;;;;22.57;70.95;97070.55;599798;236;68969;-65
2023/06/29 08:11:50;;;;;;;;;;;;;;;22.57;71.00;97067.86;599618;236;68671;-63
2023/06/29 08:14:23;;;;;;;;;;;;;;;22.69;72.27;97060.25;636002;222;35545;-64
2023/06/29 08:16:51;;;;;;;;;;;;;;;22.57;73.60;97067.86;626198;226;65013;-64
2023/06/29 08:19:18;;;;;;;;;;;;;;;22.55;73.83;97070.02;626172;226;64595;-63
2023/06/29 08:21:47;;;;;;;;;;;;;;;22.54;73.69;97077.25;626237;226;62023;-63
2023/06/29 08:24:14;;;;;;;;;;;;;;;22.52;74.04;97068.70;625890;226;64978;-62
2023/06/29 08:26:42;;;;;;;;;;;;;;;22.54;74.25;97073.78;625139;224;64792;-63
2023/06/29 08:29:09;;;;;;;;;;;;;;;22.53;74.18;97070.28;625462;226;65441;-62
2023/06/29 08:31:37;;;;;;;;;;;;;;;22.53;74.09;97069.48;625626;226;62946;-63
2023/06/29 08:34:04;;;;;;;;;;;;;;;22.53;74.23;97066.81;625792;226;63075;-62
2023/06/29 08:36:32;;;;;;;;;;;;;;;22.52;73.88;97066.02;619444;226;64066;-62
2023/06/29 08:38:59;;;;;;;;;;;;;;;22.52;73.96;97060.66;624576;226;62918;-63
2023/06/29 08:41:26;;;;;;;;;;;;;;;22.54;74.81;97068.43;626015;226;64751;-61
2023/06/29 08:43:54;;;;;;;;;;;;;;;22.53;74.12;97066.81;626207;226;64327;-61
2023/06/29 08:46:22;;;;;;;;;;;;;;;22.52;74.06;97076.73;626276;226;64905;-61
2023/06/29 08:48:49;;;;;;;;;;;;;;;22.52;74.53;97079.41;626122;226;64605;-61
2023/06/29 08:51:19;;;;;;;;;;;;;;;22.52;75.02;97066.02;625037;226;62135;-61
2023/06/29 08:53:47;;;;;;;;;;;;;;;22.51;74.05;97066.31;619020;226;65011;-60
2023/06/29 08:56:14;;;;;;;;;;;;;;;22.51;73.34;97060.95;618963;229;64575;-60
2023/06/29 08:58:42;;;;;;;;;;;;;;;22.51;72.82;97068.98;621956;226;64363;-60
2023/06/29 09:01:10;;;;;;;;;;;;;;;22.51;73.30;97063.63;624251;226;65275;-61
2023/06/29 09:03:38;;;;;;;;;;;;;;;22.50;72.74;97060.13;626156;226;64665;-61
2023/06/29 09:06:06;;;;;;;;;;;;;;;22.51;72.81;97061.75;626099;226;64362;-61
2023/06/29 09:08:37;;;;;;;;;;;;;;;22.50;72.70;97056.66;626128;226;65028;-61
2023/06/29 09:11:05;;;;;;;;;;;;;;;22.51;72.81;97063.63;626120;226;63111;-61
2023/06/29 09:13:33;;;;;;;;;;;;;;;22.50;72.61;97057.45;625350;226;65359;-61
2023/06/29 09:16:01;;;;;;;;;;;;;;;22.50;72.33;97062.81;624823;227;63796;-61
2023/06/29 09:18:29;;;;;;;;;;;;;;;22.50;72.39;97067.37;624819;227;64617;-61
2023/06/29 09:20:57;;;;;;;;;;;;;;;22.51;72.72;97068.98;624917;227;64168;-61
2023/06/29 09:23:33;;;;;;;;;;;;;;;22.50;72.53;97064.69;624791;227;65066;-62
2023/06/29 09:25:57;;;;;;;;;;;;;;;22.49;72.55;97055.87;624452;225;64418;-61
2023/06/29 09:28:26;;;;;;;;;;;;;;;22.50;72.70;97056.66;624783;227;62384;-61
2023/06/29 09:30:54;;;;;;;;;;;;;;;22.49;72.86;97050.51;624578;227;65011;-61
2023/06/29 09:33:23;;;;;;;;;;;;;;;22.49;72.60;97052.39;624698;227;62453;-61
2023/06/29 09:35:53;;;;;;;;;;;;;;;22.49;72.92;97055.87;624779;227;64337;-60
2023/06/29 09:38:20;;;;;;;;;;;;;;;22.49;72.48;97055.87;624762;227;65034;-61
2023/06/29 09:40:55;;;;;;;;;;;;;;;22.48;72.60;97056.95;624727;227;64453;-61
2023/06/29 09:43:24;;;;;;;;;;;;;;;22.49;72.50;97055.08;624545;227;63127;-62
2023/06/29 09:45:52;;;;;;;;;;;;;;;22.47;72.55;97052.66;624558;226;62919;-62
2023/06/29 09:48:22;;;;;;;;;;;;;;;22.47;72.50;97052.66;624788;227;62617;-62
2023/06/29 09:50:55;;;;;;;;;;;;;;;22.48;72.49;97054.28;623941;227;64382;-62
2023/06/29 09:53:21;;;;;;;;;;;;;;;22.47;72.38;97058.02;623671;226;63110;-62
2023/06/29 09:55:49;;;;;;;;;;;;;;;22.48;72.24;97048.92;624624;225;64623;-62
2023/06/29 09:58:18;;;;;;;;;;;;;;;22.47;72.21;97049.98;624766;227;64431;-62
2023/06/29 10:00:46;;;;;;;;;;;;;;;22.47;72.48;97044.63;624652;227;62954;-62
2023/06/29 10:03:14;;;;;;;;;;;;;;;22.47;69.89;97041.16;624731;227;64778;-62
2023/06/29 10:05:41;;;;;;;;;;;;;;;22.47;72.86;97047.30;624719;227;64354;-62
2023/06/29 10:08:10;;;;;;;;;;;;;;;22.46;72.10;97048.39;624733;227;62695;-62
2023/06/29 10:10:38;;;;;;;;;;;;;;;22.47;72.14;97043.83;624712;226;62467;-62
2023/06/29 10:13:06;;;;;;;;;;;;;;;22.46;71.66;97040.36;624600;226;64180;-62
2023/06/29 10:15:36;;;;;;;;;;;;;;;22.46;71.18;97035.00;624784;227;62990;-62
2023/06/29 10:18:05;;;;;;;;;;;;;;;22.47;71.19;97041.95;624833;227;64671;-62
2023/06/29 10:20:35;;;;;;;;;;;;;;;22.47;71.25;97035.80;624709;226;64393;-62
2023/06/29 10:23:04;;;;;;;;;;;;;;;22.47;71.36;97035.80;624682;227;63084;-62
2023/06/29 10:25:33;;;;;;;;;;;;;;;22.47;71.96;97035.80;624740;227;62482;-62
2023/06/29 10:28:00;;;;;;;;;;;;;;;22.46;71.25;97024.30;624640;225;62227;-62
2023/06/29 10:30:28;;;;;;;;;;;;;;;22.46;71.38;97026.17;622733;227;62911;-63
2023/06/29 10:32:57;;;;;;;;;;;;;;;22.46;71.26;97021.61;617352;227;64447;-63
2023/06/29 10:35:27;;;;;;;;;;;;;;;22.47;71.43;97022.41;617496;229;64293;-62
2023/06/29 10:37:57;;;;;;;;;;;;;;;22.46;71.55;97007.44;617364;230;65198;-61
2023/06/29 10:40:28;;;;;;;;;;;;;;;22.46;71.36;97013.58;616509;230;62366;-61
2023/06/29 10:42:56;;;;;;;;;;;;;;;22.46;71.12;97023.50;616389;230;64348;-61
2023/06/29 10:45:25;;;;;;;;;;;;;;;22.45;71.27;97011.17;617501;230;65341;-61
2023/06/29 10:47:55;;;;;;;;;;;;;;;22.45;70.92;97021.87;617664;230;64578;-61
2023/06/29 10:50:29;;;;;;;;;;;;;;;22.44;70.96;97010.38;617588;230;64318;-62
2023/06/29 10:53:01;;;;;;;;;;;;;;;22.45;70.85;97020.00;617651;230;62902;-61
2023/06/29 10:55:30;;;;;;;;;;;;;;;22.45;70.86;97016.53;617643;230;62178;-63
2023/06/29 10:58:02;;;;;;;;;;;;;;;22.44;70.52;97015.73;617528;228;64428;-63
2023/06/29 11:00:30;;;;;;;;;;;;;;;22.45;70.74;97011.17;617620;228;64865;-63
2023/06/29 11:02:58;;;;;;;;;;;;;;;22.45;71.27;97016.53;617571;230;64562;-63
2023/06/29 11:05:28;;;;;;;;;;;;;;;22.44;71.43;97015.73;617656;230;65101;-63
2023/06/29 11:07:55;;;;;;;;;;;;;;;22.44;70.93;97005.02;617613;230;63026;-64
2023/06/29 11:10:23;;;;;;;;;;;;;;;22.44;71.03;97014.94;617586;230;62437;-63
2023/06/29 11:12:51;;;;;;;;;;;;;;;22.44;71.28;97012.27;618396;229;62354;-64
2023/06/29 11:15:19;;;;;;;;;;;;;;;22.44;71.27;97012.27;619841;229;63044;-63
2023/06/29 11:17:48;;;;;;;;;;;;;;;22.43;71.18;97008.79;619834;229;64599;-62
2023/06/29 11:20:16;;;;;;;;;;;;;;;22.43;65.06;97008.00;619907;229;64340;-62
2023/06/29 11:22:45;;;;;;;;;;;;;;;22.45;67.72;97011.17;619849;229;65046;-62
2023/06/29 11:25:14;;;;;;;;;;;;;;;22.46;68.87;97016.27;619868;229;64583;-62
2023/06/29 11:27:42;;;;;;;;;;;;;;;22.46;68.91;97018.14;619759;228;64304;-62
2023/06/29 11:30:10;;;;;;;;;;;;;;;22.46;70.19;97016.27;619848;229;65174;-62
2023/06/29 11:32:38;;;;;;;;;;;;;;;22.46;70.45;97018.14;619851;229;64669;-62
2023/06/29 11:35:06;;;;;;;;;;;;;;;22.46;69.52;97013.58;619840;229;64405;-63
2023/06/29 11:37:35;;;;;;;;;;;;;;;22.46;69.50;97010.11;619880;229;65099;-63
2023/06/29 11:40:07;;;;;;;;;;;;;;;22.45;69.47;97011.97;619807;229;64669;-62
2023/06/29 11:42:37;;;;;;;;;;;;;;;22.46;69.25;97004.75;619839;229;64401;-63
2023/06/29 11:45:11;;;;;;;;;;;;;;;22.46;68.92;97012.79;619811;229;62904;-63
2023/06/29 11:47:35;;;;;;;;;;;;;;;22.45;68.75;97000.46;619612;228;64564;-63
2023/06/29 11:50:07;;;;;;;;;;;;;;;22.45;68.79;97005.81;619820;229;64559;-63
2023/06/29 11:52:35;;;;;;;;;;;;;;;22.44;68.89;96998.87;619842;227;64490;-62
2023/06/29 11:55:04;;;;;;;;;;;;;;;22.45;68.76;97000.46;619756;229;64784;-63
2023/06/29 11:57:32;;;;;;;;;;;;;;;22.44;68.63;96994.31;619880;229;62305;-62
2023/06/29 11:59:59;;;;;;;;;;;;;;;22.45;68.51;97003.14;619851;229;62983;-62
2023/06/29 12:02:27;;;;;;;;;;;;;;;22.45;68.70;96990.55;619840;229;62587;-62
2023/06/29 12:04:56;;;;;;;;;;;;;;;22.45;68.70;96997.78;619901;229;62340;-62
2023/06/29 12:07:37;;;;;;;;;;;;;;;22.45;69.54;97000.46;619811;229;65270;-62
2023/06/29 12:10:06;;;;;;;;;;;;;;;22.45;69.30;96992.42;619855;229;64602;-63
2023/06/29 12:12:44;;;;;;;;;;;;;;;22.45;68.71;96987.07;619791;229;64336;-63
2023/06/29 12:15:13;;;;;;;;;;;;;;;22.44;68.97;96983.59;619800;229;62903;-63
2023/06/29 12:17:42;;;;;;;;;;;;;;;22.44;69.08;96983.59;619837;227;62378;-63
2023/06/29 12:20:22;;;;;;;;;;;;;;;22.44;69.13;96977.45;619880;229;64427;-64
2023/06/29 12:22:50;;;;;;;;;;;;;;;22.44;69.70;96994.31;619645;228;64979;-65
2023/06/29 12:25:19;;;;;;;;;;;;;;;22.45;71.51;96984.39;619821;229;65425;-63
2023/06/29 12:27:48;;;;;;;;;;;;;;;22.44;72.05;96986.28;619796;229;65168;-65
2023/06/29 12:30:20;;;;;;;;;;;;;;;22.43;72.45;96982.02;619742;229;65066;-66
2023/06/29 12:32:49;;;;;;;;;;;;;;;22.44;72.61;96988.16;619769;229;63233;-65
2023/06/29 12:35:17;;;;;;;;;;;;;;;22.43;72.69;96975.86;619815;229;63246;-65
2023/06/29 12:37:44;;;;;;;;;;;;;;;22.43;73.10;96975.86;619776;229;65057;-65
2023/06/29 12:40:14;;;;;;;;;;;;;;;22.42;72.57;96976.92;619820;229;65405;-65
2023/06/29 12:42:41;;;;;;;;;;;;;;;22.43;71.98;96981.22;619748;229;65192;-67
2023/06/29 12:45:09;;;;;;;;;;;;;;;22.43;71.96;96970.51;619792;229;65866;-65
2023/06/29 12:47:37;;;;;;;;;;;;;;;22.42;71.80;96963.54;619853;229;65686;-65
2023/06/29 12:50:05;;;;;;;;;;;;;;;22.43;69.15;96970.51;619821;229;62868;-65
2023/06/29 12:52:33;;;;;;;;;;;;;;;22.44;68.63;96966.73;619789;229;65058;-65